Time;durP1;ratioP1;P1;durP2;ratioP2;P2;SDS_P1;SDS_P2;PMS_P1;PMS_P2;Temp;Humidity;BMP_temperature;BMP_pressure;BME280_temperature;BME280_humidity;BME280_pressure;Samples;Min_cycle;Max_cycle;Signal;HPM_P1;HPM_P2
2021/06/30 00:01:16;;;;;;;12.00;5.83;;;14.20;99.90;;;;;;4377260;32;20167;-63
2021/06/30 00:03:43;;;;;;;15.27;5.97;;;14.10;99.90;;;;;;4393179;32;20543;-62
2021/06/30 00:06:10;;;;;;;11.03;6.67;;;14.20;99.90;;;;;;4391473;32;20167;-64
2021/06/30 00:08:38;;;;;;;11.30;7.73;;;14.20;99.90;;;;;;4390230;32;20591;-63
2021/06/30 00:11:06;;;;;;;7.63;6.40;;;14.20;99.90;;;;;;4390212;32;20156;-63
2021/06/30 00:13:33;;;;;;;10.30;6.17;;;14.20;99.90;;;;;;4389780;32;20476;-63
2021/06/30 00:16:00;;;;;;;11.03;6.83;;;14.20;99.90;;;;;;4391172;32;20160;-64
2021/06/30 00:18:27;;;;;;;9.20;6.77;;;14.30;99.90;;;;;;4390611;32;20214;-61
2021/06/30 00:20:54;;;;;;;8.37;5.93;;;14.40;99.90;;;;;;4390423;32;20144;-64
2021/06/30 00:23:21;;;;;;;7.77;6.17;;;14.40;99.90;;;;;;4391676;32;20136;-62
2021/06/30 00:25:49;;;;;;;9.40;5.83;;;14.50;99.90;;;;;;4382278;32;20148;-62
2021/06/30 00:28:16;;;;;;;7.70;6.33;;;14.50;99.90;;;;;;4382279;32;20237;-64
2021/06/30 00:30:43;;;;;;;11.13;7.00;;;14.40;99.90;;;;;;4391680;32;20156;-63
2021/06/30 00:33:10;;;;;;;10.57;6.93;;;14.30;99.90;;;;;;4389679;32;20186;-62
2021/06/30 00:35:37;;;;;;;12.70;7.97;;;14.10;99.90;;;;;;4391510;32;20175;-62
2021/06/30 00:38:04;;;;;;;9.93;6.90;;;14.20;99.90;;;;;;4388615;32;20148;-63
2021/06/30 00:40:31;;;;;;;12.30;7.27;;;14.20;99.90;;;;;;4390314;32;20222;-61
2021/06/30 00:42:59;;;;;;;10.30;6.90;;;14.10;99.90;;;;;;4389815;32;20583;-63
2021/06/30 00:45:26;;;;;;;8.33;6.00;;;14.10;99.90;;;;;;4388573;32;20152;-63
2021/06/30 00:47:53;;;;;;;8.60;6.23;;;14.20;99.90;;;;;;4378834;32;20162;-64
2021/06/30 00:50:20;;;;;;;6.87;6.13;;;14.10;99.90;;;;;;4377919;32;20140;-63
2021/06/30 00:52:47;;;;;;;8.13;6.53;;;14.20;99.90;;;;;;4376895;32;20144;-64
2021/06/30 00:55:15;;;;;;;10.83;6.03;;;14.20;99.90;;;;;;4376581;32;20176;-62
2021/06/30 00:57:43;;;;;;;13.20;6.50;;;14.10;99.90;;;;;;4385497;32;20191;-63
2021/06/30 01:00:17;;;;;;;10.57;6.93;;;14.10;99.90;;;;;;4391708;32;20154;-64
2021/06/30 01:02:44;;;;;;;10.13;6.07;;;14.10;99.90;;;;;;4389819;32;20472;-63
2021/06/30 01:05:12;;;;;;;6.47;5.57;;;14.00;99.90;;;;;;4387630;32;20179;-61
2021/06/30 01:07:40;;;;;;;11.00;6.53;;;14.10;99.90;;;;;;4377146;32;20147;-62
2021/06/30 01:10:07;;;;;;;9.87;6.00;;;14.00;99.90;;;;;;4378041;32;20169;-63
2021/06/30 01:12:34;;;;;;;8.77;6.33;;;14.20;99.90;;;;;;4381098;32;20511;-62
2021/06/30 01:15:04;;;;;;;9.97;5.97;;;14.00;99.90;;;;;;4389707;32;20229;-62
2021/06/30 01:17:32;;;;;;;13.60;7.17;;;14.00;99.90;;;;;;4375495;32;20144;-62
2021/06/30 01:19:59;;;;;;;14.07;7.87;;;14.00;99.90;;;;;;4376462;32;20147;-62
2021/06/30 01:22:27;;;;;;;9.53;6.70;;;14.00;99.90;;;;;;4375894;32;20170;-63
2021/06/30 01:24:55;;;;;;;8.93;6.90;;;14.00;99.90;;;;;;4377939;32;20229;-63
2021/06/30 01:27:23;;;;;;;10.07;7.63;;;14.00;99.90;;;;;;4387233;32;20157;-63
2021/06/30 01:29:54;;;;;;;10.90;6.97;;;14.10;99.90;;;;;;4390508;32;20181;-63
2021/06/30 01:32:21;;;;;;;13.43;8.23;;;14.10;99.90;;;;;;4390799;32;20169;-63
2021/06/30 01:34:48;;;;;;;9.37;7.10;;;14.10;99.90;;;;;;4387537;32;20536;-61
2021/06/30 01:37:14;;;;;;;10.50;6.57;;;14.20;99.90;;;;;;4375644;32;20146;-65
2021/06/30 01:39:41;;;;;;;12.03;7.90;;;14.30;99.90;;;;;;4377721;32;20171;-64
2021/06/30 01:42:10;;;;;;;8.60;6.23;;;14.20;99.90;;;;;;4380972;32;20144;-64
2021/06/30 01:44:36;;;;;;;10.07;7.17;;;14.30;99.90;;;;;;4389205;32;20191;-63
2021/06/30 01:47:03;;;;;;;10.27;7.20;;;14.30;99.90;;;;;;4377144;32;20167;-64
2021/06/30 01:49:30;;;;;;;11.03;6.90;;;14.10;99.90;;;;;;4375287;32;20629;-62
2021/06/30 01:51:57;;;;;;;9.60;7.53;;;14.20;99.90;;;;;;4389366;32;20171;-64
2021/06/30 01:54:24;;;;;;;13.60;7.80;;;14.30;99.90;;;;;;4385982;32;20219;-64
2021/06/30 01:56:51;;;;;;;12.23;6.60;;;14.20;99.90;;;;;;4375997;32;20203;-63
2021/06/30 01:59:26;;;;;;;12.40;6.60;;;14.10;99.90;;;;;;4377000;32;20178;-64
2021/06/30 02:01:57;;;;;;;11.90;8.30;;;14.10;99.90;;;;;;4371748;32;20253;-63
2021/06/30 02:04:24;;;;;;;9.23;6.70;;;14.10;99.90;;;;;;4374628;32;20295;-62
2021/06/30 02:09:38;;;;;;;11.10;7.03;;;14.10;99.90;;;;;;4325109;33;20278;-63
2021/06/30 02:12:08;;;;;;;11.07;6.73;;;14.30;99.90;;;;;;4327635;33;20154;-63
2021/06/30 02:14:36;;;;;;;9.10;7.10;;;14.20;99.90;;;;;;4331061;33;20153;-64
2021/06/30 02:17:04;;;;;;;10.17;6.37;;;14.30;99.90;;;;;;4326296;33;20787;-63
2021/06/30 02:19:30;;;;;;;16.10;7.87;;;14.30;99.90;;;;;;4327797;33;20188;-63
2021/06/30 02:21:57;;;;;;;10.10;6.23;;;14.40;99.90;;;;;;4335265;33;20469;-63
2021/06/30 02:24:24;;;;;;;12.83;7.40;;;14.30;99.90;;;;;;4335083;33;20188;-63
2021/06/30 02:26:53;;;;;;;12.13;7.30;;;14.30;99.90;;;;;;4331947;33;20157;-63
2021/06/30 02:29:19;;;;;;;14.20;8.30;;;14.20;99.90;;;;;;4337672;33;20216;-64
2021/06/30 02:31:48;;;;;;;13.57;7.73;;;14.10;99.90;;;;;;4332481;33;20264;-63
2021/06/30 02:34:14;;;;;;;8.97;7.20;;;14.10;99.90;;;;;;4272890;33;1994774;-65
2021/06/30 02:36:41;;;;;;;10.10;7.17;;;14.10;99.90;;;;;;4331453;33;20224;-65
2021/06/30 02:39:08;;;;;;;8.90;6.83;;;14.10;99.90;;;;;;4334635;33;20173;-64
2021/06/30 02:41:35;;;;;;;12.07;7.13;;;14.20;99.90;;;;;;4390731;32;20230;-64
2021/06/30 02:44:01;;;;;;;12.87;7.53;;;14.10;99.90;;;;;;4388446;32;20170;-64
2021/06/30 02:46:29;;;;;;;8.30;6.17;;;14.20;99.90;;;;;;4381755;32;20563;-64
2021/06/30 02:48:57;;;;;;;9.43;7.57;;;14.30;99.90;;;;;;4393129;32;20166;-64
2021/06/30 02:51:24;;;;;;;8.40;6.03;;;14.20;99.90;;;;;;4391306;32;20167;-64
2021/06/30 02:53:51;;;;;;;9.20;6.27;;;14.20;99.90;;;;;;4382455;32;20149;-64
2021/06/30 02:56:21;;;;;;;10.27;7.63;;;14.20;99.90;;;;;;4392304;32;20151;-61
2021/06/30 02:58:48;;;;;;;8.60;6.77;;;14.20;99.90;;;;;;4390667;32;20565;-64
2021/06/30 03:01:15;;;;;;;10.07;6.80;;;14.20;99.90;;;;;;4386317;32;20167;-63
2021/06/30 03:03:41;;;;;;;15.87;8.07;;;14.20;99.90;;;;;;4391366;32;20166;-61
2021/06/30 03:06:10;;;;;;;13.77;9.07;;;14.00;99.90;;;;;;4388770;32;20215;-62
2021/06/30 03:08:36;;;;;;;11.77;7.60;;;14.00;99.90;;;;;;4392479;32;20236;-63
2021/06/30 03:11:05;;;;;;;12.10;9.40;;;13.90;99.90;;;;;;4383877;32;20183;-63
2021/06/30 03:13:32;;;;;;;11.57;9.03;;;13.90;99.90;;;;;;4380384;32;20228;-63
2021/06/30 03:15:59;;;;;;;13.23;8.30;;;13.80;99.90;;;;;;4379130;32;20150;-63
2021/06/30 03:18:26;;;;;;;16.13;8.90;;;13.90;99.90;;;;;;4377623;32;20488;-63
2021/06/30 03:20:52;;;;;;;9.07;7.57;;;13.90;99.90;;;;;;4378246;32;20183;-64
2021/06/30 03:23:20;;;;;;;12.43;7.73;;;13.80;99.90;;;;;;4377691;32;20149;-63
2021/06/30 03:25:47;;;;;;;16.37;8.80;;;13.90;99.90;;;;;;4378584;32;20221;-62
2021/06/30 03:28:14;;;;;;;13.93;8.10;;;13.80;99.90;;;;;;4377356;32;20502;-61
2021/06/30 03:30:42;;;;;;;13.63;8.83;;;13.80;99.90;;;;;;4380065;32;20143;-64
2021/06/30 03:33:12;;;;;;;12.90;7.80;;;13.80;99.90;;;;;;4378930;32;20157;-63
2021/06/30 03:35:41;;;;;;;9.83;6.70;;;13.90;99.90;;;;;;4382806;32;20655;-64
2021/06/30 03:38:08;;;;;;;13.60;7.97;;;13.90;99.90;;;;;;4391725;32;20655;-61
2021/06/30 03:40:36;;;;;;;10.70;8.43;;;13.90;99.90;;;;;;4378621;32;20152;-62
2021/06/30 03:43:03;;;;;;;12.13;7.93;;;13.90;99.90;;;;;;4378215;32;20607;-62
2021/06/30 03:45:30;;;;;;;12.73;8.77;;;13.90;99.90;;;;;;4387339;32;20163;-64
2021/06/30 03:47:57;;;;;;;12.37;6.80;;;13.90;99.90;;;;;;4378561;32;20144;-63
2021/06/30 03:50:24;;;;;;;13.27;8.77;;;14.00;99.90;;;;;;4377375;32;20162;-62
2021/06/30 03:52:51;;;;;;;9.93;6.67;;;14.00;99.90;;;;;;4384418;32;20170;-62
2021/06/30 03:55:18;;;;;;;7.87;6.83;;;14.00;99.90;;;;;;4391796;32;20200;-62
2021/06/30 03:57:46;;;;;;;9.23;6.60;;;14.10;99.90;;;;;;4387116;32;20164;-62
2021/06/30 04:00:13;;;;;;;10.33;7.50;;;14.10;99.90;;;;;;4390147;32;20155;-63
2021/06/30 04:02:40;;;;;;;11.07;7.37;;;13.90;99.90;;;;;;4382286;32;20152;-64
2021/06/30 04:05:08;;;;;;;11.57;8.60;;;13.90;99.90;;;;;;4389215;32;20160;-64
2021/06/30 04:07:35;;;;;;;13.20;7.13;;;13.90;99.90;;;;;;4389537;32;20171;-62
2021/06/30 04:10:02;;;;;;;11.70;8.20;;;14.00;99.90;;;;;;4385477;32;20167;-62
2021/06/30 04:12:29;;;;;;;9.97;7.57;;;14.00;99.90;;;;;;4391552;32;20211;-63
2021/06/30 04:14:57;;;;;;;8.77;6.80;;;14.10;99.90;;;;;;4389426;32;20158;-63
2021/06/30 04:17:24;;;;;;;10.27;7.77;;;14.10;99.90;;;;;;4377745;32;20212;-63
2021/06/30 04:19:54;;;;;;;11.63;7.03;;;14.00;99.90;;;;;;4383075;32;20173;-63
2021/06/30 04:22:21;;;;;;;10.60;7.30;;;14.10;99.90;;;;;;4385294;32;20179;-63
2021/06/30 04:24:48;;;;;;;11.10;6.80;;;14.00;99.90;;;;;;4385589;32;20148;-63
2021/06/30 04:27:15;;;;;;;14.43;8.03;;;13.90;99.90;;;;;;4387381;32;20182;-64
2021/06/30 04:29:41;;;;;;;9.20;6.70;;;13.90;99.90;;;;;;4385247;32;20148;-64
2021/06/30 04:32:10;;;;;;;15.63;7.37;;;13.90;99.90;;;;;;4376405;32;20204;-63
2021/06/30 04:34:36;;;;;;;14.20;7.90;;;14.00;99.90;;;;;;4376929;32;20155;-63
2021/06/30 04:37:04;;;;;;;8.20;7.30;;;13.80;99.90;;;;;;4389377;32;20149;-63
2021/06/30 04:39:30;;;;;;;12.90;7.27;;;13.80;99.90;;;;;;4389174;32;20152;-63
2021/06/30 04:41:57;;;;;;;18.00;7.43;;;13.90;99.90;;;;;;4381547;32;20200;-65
2021/06/30 04:44:24;;;;;;;11.27;7.57;;;13.90;99.90;;;;;;4378674;32;20171;-65
2021/06/30 04:46:51;;;;;;;11.03;7.50;;;13.90;99.90;;;;;;4377992;32;20186;-64
2021/06/30 04:49:19;;;;;;;13.40;8.10;;;13.90;99.90;;;;;;4384716;32;20191;-63
2021/06/30 04:51:46;;;;;;;13.53;8.87;;;14.00;99.90;;;;;;4383677;32;20144;-64
2021/06/30 04:54:17;;;;;;;12.33;8.73;;;13.90;99.90;;;;;;4376292;32;20167;-63
2021/06/30 04:56:44;;;;;;;14.07;9.03;;;13.90;99.90;;;;;;4376980;32;20161;-64
2021/06/30 04:59:11;;;;;;;12.07;9.53;;;14.00;99.90;;;;;;4375807;32;20171;-64
2021/06/30 05:01:38;;;;;;;10.53;8.17;;;14.00;99.90;;;;;;4379772;32;20214;-65
2021/06/30 05:04:05;;;;;;;18.70;11.63;;;14.00;99.90;;;;;;4378619;32;20584;-64
2021/06/30 05:06:35;;;;;;;12.27;9.57;;;13.90;99.90;;;;;;4387887;32;20147;-64
2021/06/30 05:09:01;;;;;;;18.27;11.90;;;13.90;99.90;;;;;;4382209;32;20495;-63
2021/06/30 05:11:29;;;;;;;17.57;11.63;;;13.80;99.90;;;;;;4388574;32;20194;-63
2021/06/30 05:13:59;;;;;;;14.53;10.93;;;13.80;99.90;;;;;;4383975;32;20146;-64
2021/06/30 05:16:26;;;;;;;13.10;9.50;;;13.90;99.90;;;;;;4376797;32;20493;-64
2021/06/30 05:18:56;;;;;;;17.03;11.47;;;14.00;99.90;;;;;;4378046;32;20167;-64
2021/06/30 05:21:23;;;;;;;14.07;10.60;;;13.80;99.90;;;;;;4383273;32;20146;-64
2021/06/30 05:23:52;;;;;;;10.90;8.50;;;13.90;99.90;;;;;;4374988;32;20148;-63
2021/06/30 05:26:18;;;;;;;20.47;11.83;;;14.00;99.90;;;;;;4375474;32;20570;-64
2021/06/30 05:28:47;;;;;;;13.90;9.83;;;13.90;99.90;;;;;;4377524;32;20167;-64
2021/06/30 05:31:13;;;;;;;13.57;9.93;;;14.00;99.90;;;;;;4383331;32;20602;-63
2021/06/30 05:33:40;;;;;;;11.53;8.80;;;14.10;99.90;;;;;;4378704;32;20214;-64
2021/06/30 05:36:07;;;;;;;11.43;10.03;;;14.10;99.90;;;;;;4378244;32;20170;-64
2021/06/30 05:38:37;;;;;;;14.27;10.60;;;14.00;99.90;;;;;;4381446;32;20165;-62
2021/06/30 05:41:07;;;;;;;14.37;10.03;;;14.00;99.90;;;;;;4375809;32;20163;-64
2021/06/30 05:43:36;;;;;;;14.93;11.47;;;13.90;99.90;;;;;;4381855;32;20218;-62
2021/06/30 05:46:03;;;;;;;15.13;10.20;;;13.90;99.90;;;;;;4387908;32;20152;-63
2021/06/30 05:48:30;;;;;;;17.67;11.33;;;14.00;99.90;;;;;;4380926;32;20175;-64
2021/06/30 05:50:57;;;;;;;12.77;9.87;;;14.10;99.90;;;;;;4376176;32;20169;-64
2021/06/30 05:53:24;;;;;;;13.90;11.30;;;14.00;99.90;;;;;;4374652;32;20156;-64
2021/06/30 05:55:51;;;;;;;16.83;12.00;;;14.00;99.90;;;;;;4377209;32;20174;-63
2021/06/30 05:58:20;;;;;;;14.70;10.47;;;13.90;99.90;;;;;;4379835;32;20181;-63
2021/06/30 06:00:47;;;;;;;13.63;10.03;;;13.80;99.90;;;;;;4379838;32;20147;-64
2021/06/30 06:03:14;;;;;;;17.97;11.77;;;13.90;99.90;;;;;;4382530;32;20148;-64
2021/06/30 06:05:41;;;;;;;14.53;9.97;;;13.90;99.90;;;;;;4382476;32;20231;-63
2021/06/30 06:08:08;;;;;;;16.10;10.77;;;14.00;99.90;;;;;;4382194;32;20148;-64
2021/06/30 06:10:35;;;;;;;14.90;11.17;;;13.90;99.90;;;;;;4379494;32;20203;-63
2021/06/30 06:13:01;;;;;;;18.60;11.57;;;14.00;99.90;;;;;;4377334;32;20611;-63
2021/06/30 06:15:30;;;;;;;20.70;12.33;;;14.00;99.90;;;;;;4380943;32;20587;-63
2021/06/30 06:17:57;;;;;;;13.97;10.33;;;14.10;99.90;;;;;;4380649;32;20565;-64
2021/06/30 06:20:24;;;;;;;14.73;9.97;;;14.20;99.90;;;;;;4382372;32;20168;-63
2021/06/30 06:22:53;;;;;;;17.47;10.70;;;14.30;99.90;;;;;;4382913;32;20152;-63
2021/06/30 06:25:20;;;;;;;12.30;10.50;;;14.20;99.90;;;;;;4384614;32;20177;-63
2021/06/30 06:27:47;;;;;;;16.10;11.47;;;14.10;99.90;;;;;;4382474;32;20165;-64
2021/06/30 06:30:15;;;;;;;13.37;11.37;;;14.00;99.90;;;;;;4384184;32;20652;-63
2021/06/30 06:32:43;;;;;;;18.67;12.73;;;14.00;99.90;;;;;;4382062;32;20149;-62
2021/06/30 06:35:13;;;;;;;14.07;10.70;;;14.00;99.90;;;;;;4381534;32;20147;-63
2021/06/30 06:37:41;;;;;;;10.17;9.07;;;14.10;99.90;;;;;;4381011;32;20176;-63
2021/06/30 06:40:10;;;;;;;12.40;8.17;;;14.20;99.90;;;;;;4382501;32;20179;-65
2021/06/30 06:42:38;;;;;;;13.73;10.77;;;14.20;99.90;;;;;;4382981;32;20231;-64
2021/06/30 06:45:07;;;;;;;16.87;10.53;;;14.20;99.90;;;;;;4377789;32;20159;-65
2021/06/30 06:47:35;;;;;;;18.37;11.27;;;14.10;99.90;;;;;;4382230;32;20160;-63
2021/06/30 06:50:05;;;;;;;13.63;10.90;;;14.10;99.90;;;;;;4383187;32;20208;-63
2021/06/30 06:52:31;;;;;;;15.37;11.17;;;14.10;99.90;;;;;;4381340;32;20233;-64
2021/06/30 06:54:59;;;;;;;12.23;9.63;;;14.10;99.90;;;;;;4381448;32;20155;-63
2021/06/30 06:57:26;;;;;;;16.93;11.23;;;14.10;99.90;;;;;;4381168;32;20216;-63
2021/06/30 06:59:53;;;;;;;13.27;9.73;;;14.10;99.90;;;;;;4377120;32;20234;-64
2021/06/30 07:02:20;;;;;;;20.20;11.43;;;14.20;99.90;;;;;;4381037;32;20205;-63
2021/06/30 07:04:47;;;;;;;14.00;9.50;;;14.20;99.90;;;;;;4381935;32;20495;-63
2021/06/30 07:07:21;;;;;;;17.70;10.13;;;14.30;99.90;;;;;;4382246;32;20195;-62
2021/06/30 07:09:48;;;;;;;11.80;9.93;;;14.30;99.90;;;;;;4383877;32;20581;-63
2021/06/30 07:12:15;;;;;;;19.47;12.97;;;14.50;99.90;;;;;;4381979;32;20167;-63
2021/06/30 07:14:43;;;;;;;13.53;10.10;;;14.50;99.90;;;;;;4384709;32;20149;-63
2021/06/30 07:17:10;;;;;;;14.80;11.37;;;14.50;99.90;;;;;;4383637;32;20188;-63
2021/06/30 07:19:37;;;;;;;11.80;10.37;;;14.50;99.90;;;;;;4383806;32;20156;-64
2021/06/30 07:22:04;;;;;;;14.83;11.17;;;14.60;99.90;;;;;;4381957;32;20155;-63
2021/06/30 07:24:33;;;;;;;12.83;10.47;;;14.50;99.90;;;;;;4382777;32;20171;-63
2021/06/30 07:27:01;;;;;;;10.90;9.00;;;14.60;99.90;;;;;;4385685;32;20152;-64
2021/06/30 07:29:29;;;;;;;13.90;9.67;;;14.80;99.90;;;;;;4381105;32;20220;-64
2021/06/30 07:31:59;;;;;;;10.83;8.90;;;14.90;99.90;;;;;;4381621;32;20164;-63
2021/06/30 07:34:25;;;;;;;11.73;8.37;;;14.90;99.90;;;;;;4380467;32;20539;-63
2021/06/30 07:36:52;;;;;;;10.43;8.10;;;14.90;99.90;;;;;;4367602;32;20575;-64
2021/06/30 07:39:19;;;;;;;13.80;9.47;;;15.00;99.90;;;;;;4367752;32;20227;-63
2021/06/30 07:41:47;;;;;;;12.63;9.53;;;15.20;99.90;;;;;;4368533;32;20193;-63
2021/06/30 07:44:14;;;;;;;9.97;8.07;;;15.20;99.90;;;;;;4366032;32;20515;-63
2021/06/30 07:46:41;;;;;;;10.13;8.80;;;15.20;99.90;;;;;;4364613;32;20247;-61
2021/06/30 07:49:10;;;;;;;11.77;8.57;;;15.10;99.90;;;;;;4365093;32;20182;-65
2021/06/30 07:51:37;;;;;;;12.50;10.07;;;15.00;99.90;;;;;;4362745;32;20211;-65
2021/06/30 07:54:06;;;;;;;12.30;9.17;;;14.70;99.90;;;;;;4368567;32;20145;-64
2021/06/30 07:56:36;;;;;;;12.53;9.63;;;14.80;99.90;;;;;;4367766;32;20153;-64
2021/06/30 07:59:06;;;;;;;14.47;11.27;;;14.80;99.90;;;;;;4365466;32;20227;-64
2021/06/30 08:01:33;;;;;;;13.03;10.13;;;14.90;99.90;;;;;;4366606;32;20175;-62
2021/06/30 08:04:05;;;;;;;20.30;12.40;;;14.70;99.90;;;;;;4368143;32;20163;-64
2021/06/30 08:06:32;;;;;;;21.07;13.00;;;14.70;99.90;;;;;;4364151;32;20144;-62
2021/06/30 08:08:59;;;;;;;14.83;11.17;;;14.80;99.90;;;;;;4369102;32;20655;-63
2021/06/30 08:11:26;;;;;;;21.27;12.87;;;14.80;99.90;;;;;;4367986;32;20156;-63
2021/06/30 08:13:54;;;;;;;17.87;13.10;;;14.90;99.90;;;;;;4368028;32;20152;-62
2021/06/30 08:16:23;;;;;;;13.30;10.67;;;14.70;99.90;;;;;;4361367;32;20199;-64
2021/06/30 08:18:50;;;;;;;18.70;11.70;;;14.60;99.90;;;;;;4361632;33;20553;-63
2021/06/30 08:21:17;;;;;;;16.97;10.63;;;14.70;99.90;;;;;;4370838;32;20193;-63
2021/06/30 08:23:44;;;;;;;23.93;10.90;;;14.70;99.90;;;;;;4376195;32;20207;-63
2021/06/30 08:26:12;;;;;;;23.43;11.37;;;14.80;99.90;;;;;;4365070;32;20508;-63
2021/06/30 08:28:39;;;;;;;18.17;11.33;;;14.80;99.90;;;;;;4376192;32;20153;-62
2021/06/30 08:31:07;;;;;;;19.03;11.97;;;14.60;99.90;;;;;;4366674;32;20222;-62
2021/06/30 08:33:35;;;;;;;25.67;14.23;;;14.50;99.90;;;;;;4361656;32;20620;-63
2021/06/30 08:36:02;;;;;;;17.83;11.73;;;14.50;99.90;;;;;;4380881;32;20178;-63
2021/06/30 08:38:29;;;;;;;21.23;12.17;;;14.60;99.90;;;;;;4391694;32;20145;-63
2021/06/30 08:41:00;;;;;;;17.87;11.27;;;14.50;99.90;;;;;;4383287;32;20175;-62
2021/06/30 08:43:28;;;;;;;19.17;12.83;;;14.60;99.90;;;;;;4387620;32;20514;-63
2021/06/30 08:45:58;;;;;;;22.13;11.37;;;14.50;99.90;;;;;;4375871;32;20380;-61
2021/06/30 08:48:37;;;;;;;16.83;11.33;;;14.60;99.90;;;;;;4372884;32;20200;-62
2021/06/30 08:51:14;;;;;;;12.87;10.23;;;14.60;99.90;;;;;;4377117;32;20147;-62
2021/06/30 08:53:49;;;;;;;15.67;10.93;;;14.70;99.90;;;;;;4377543;32;20197;-63
2021/06/30 08:56:19;;;;;;;17.40;11.10;;;14.80;99.90;;;;;;4382966;32;20604;-63
2021/06/30 08:58:50;;;;;;;19.47;11.63;;;14.80;99.90;;;;;;4384759;32;20171;-62
2021/06/30 09:01:17;;;;;;;19.50;12.27;;;14.80;99.90;;;;;;4380892;32;20702;-62
2021/06/30 09:03:51;;;;;;;16.80;11.37;;;14.70;99.90;;;;;;4379284;32;20206;-63
2021/06/30 09:06:18;;;;;;;21.67;12.83;;;14.70;99.90;;;;;;4382914;32;20211;-63
2021/06/30 09:09:04;;;;;;;21.27;12.70;;;14.60;99.90;;;;;;4380711;32;20180;-62
2021/06/30 09:11:32;;;;;;;19.00;10.83;;;14.40;99.90;;;;;;4381475;32;20202;-62
2021/06/30 09:14:22;;;;;;;18.93;11.83;;;14.60;99.90;;;;;;4382035;32;20178;-62
2021/06/30 09:16:56;;;;;;;15.07;9.97;;;14.70;99.90;;;;;;4383030;32;20318;-63
2021/06/30 09:19:48;;;;;;;15.10;9.80;;;14.80;99.90;;;;;;4380725;32;20149;-62
2021/06/30 09:22:16;;;;;;;14.30;10.07;;;14.70;99.90;;;;;;4381313;32;20157;-63
2021/06/30 09:24:43;;;;;;;19.97;10.70;;;14.70;99.90;;;;;;4382435;32;20162;-61
2021/06/30 09:27:14;;;;;;;14.57;10.20;;;14.90;99.90;;;;;;4382985;32;20214;-64
2021/06/30 09:29:43;;;;;;;15.80;10.93;;;14.60;99.90;;;;;;4384484;32;20192;-62
2021/06/30 09:32:11;;;;;;;16.90;9.60;;;14.70;99.90;;;;;;4382672;32;20183;-63
2021/06/30 09:34:39;;;;;;;16.93;10.03;;;14.50;99.90;;;;;;4381565;32;20174;-64
2021/06/30 09:37:08;;;;;;;17.50;9.43;;;14.50;99.90;;;;;;4382331;32;20494;-61
2021/06/30 09:39:38;;;;;;;13.73;9.37;;;14.70;99.90;;;;;;4381068;32;20211;-63
2021/06/30 09:42:06;;;;;;;15.47;10.50;;;14.70;99.90;;;;;;4381699;32;20227;-63
2021/06/30 09:44:33;;;;;;;11.90;9.47;;;15.00;99.90;;;;;;4382309;32;20141;-62
2021/06/30 09:47:00;;;;;;;13.57;9.03;;;14.90;99.90;;;;;;4379352;32;20215;-63
2021/06/30 09:49:28;;;;;;;13.47;9.77;;;14.80;99.90;;;;;;4379572;32;20656;-64
2021/06/30 09:52:08;;;;;;;13.67;8.97;;;14.70;99.90;;;;;;4381350;32;20153;-64
2021/06/30 09:54:36;;;;;;;14.57;9.40;;;14.90;99.90;;;;;;4381252;32;20168;-63
2021/06/30 09:57:07;;;;;;;16.93;10.90;;;14.90;99.90;;;;;;4378776;32;20162;-62
2021/06/30 09:59:36;;;;;;;16.07;11.00;;;14.70;99.90;;;;;;4380114;32;20194;-62
2021/06/30 10:02:06;;;;;;;21.73;11.70;;;14.60;99.90;;;;;;4382898;32;20574;-63
2021/06/30 10:04:34;;;;;;;17.10;11.70;;;14.60;99.90;;;;;;4381027;32;20187;-63
2021/06/30 10:07:08;;;;;;;17.87;10.47;;;14.70;99.90;;;;;;4379625;32;20270;-62
2021/06/30 10:09:35;;;;;;;16.70;10.83;;;14.80;99.90;;;;;;4380835;32;20573;-62
2021/06/30 10:12:06;;;;;;;11.50;9.50;;;14.80;99.90;;;;;;4383009;32;20152;-62
2021/06/30 10:14:33;;;;;;;12.37;8.77;;;15.00;99.90;;;;;;4382718;32;20175;-63
2021/06/30 10:17:02;;;;;;;12.00;9.43;;;15.20;99.90;;;;;;4382446;32;20191;-63
2021/06/30 10:19:29;;;;;;;12.80;9.23;;;15.40;99.90;;;;;;4382499;32;20599;-64
2021/06/30 10:21:57;;;;;;;13.10;8.87;;;15.50;99.90;;;;;;4377829;32;20610;-63
2021/06/30 10:24:27;;;;;;;14.60;9.27;;;15.50;99.90;;;;;;4382369;32;20573;-64
2021/06/30 10:26:55;;;;;;;12.30;8.53;;;15.60;99.90;;;;;;4381428;32;20228;-62
2021/06/30 10:29:27;;;;;;;12.33;8.87;;;15.80;99.90;;;;;;4382748;32;20175;-60
2021/06/30 10:31:58;;;;;;;17.70;10.27;;;15.70;99.90;;;;;;4378755;32;20172;-62
2021/06/30 10:34:34;;;;;;;13.33;8.97;;;15.80;99.90;;;;;;4381168;32;20157;-62
2021/06/30 10:37:01;;;;;;;13.70;9.13;;;15.80;99.90;;;;;;4387599;32;20205;-61
2021/06/30 10:39:47;;;;;;;10.30;7.43;;;15.70;99.90;;;;;;4380799;32;20152;-62
2021/06/30 10:42:31;;;;;;;11.43;7.80;;;15.80;99.90;;;;;;4380233;32;20672;-63
2021/06/30 10:45:05;;;;;;;16.67;8.97;;;15.60;99.90;;;;;;4381605;32;20493;-64
2021/06/30 10:47:46;;;;;;;8.60;7.70;;;15.70;99.90;;;;;;4384504;32;20216;-61
2021/06/30 10:50:27;;;;;;;12.63;8.07;;;16.00;99.90;;;;;;4383692;32;20170;-62
2021/06/30 10:53:22;;;;;;;13.17;9.40;;;16.00;99.90;;;;;;4384933;32;20618;-62
2021/06/30 10:55:52;;;;;;;17.63;9.37;;;15.60;99.90;;;;;;4382026;32;20219;-61
2021/06/30 10:58:21;;;;;;;11.17;9.77;;;15.40;99.90;;;;;;4381441;32;20152;-62
2021/06/30 11:00:51;;;;;;;17.00;8.50;;;15.40;99.90;;;;;;4381672;32;20218;-61
2021/06/30 11:03:23;;;;;;;12.00;9.30;;;15.60;99.90;;;;;;4381853;32;20174;-60
2021/06/30 11:05:51;;;;;;;16.50;9.23;;;15.40;99.90;;;;;;4380581;32;20501;-61
2021/06/30 11:08:41;;;;;;;16.50;10.93;;;15.50;99.90;;;;;;4380646;32;20615;-63
2021/06/30 11:11:10;;;;;;;18.50;11.50;;;15.50;99.90;;;;;;4386491;32;20156;-64
2021/06/30 11:13:59;;;;;;;17.00;11.00;;;15.30;99.90;;;;;;4382710;32;20155;-63
2021/06/30 11:16:53;;;;;;;17.23;11.43;;;15.30;99.90;;;;;;4382392;32;20178;-61
2021/06/30 11:19:40;;;;;;;17.47;10.97;;;15.30;99.90;;;;;;4342453;33;20319;-63
2021/06/30 11:22:09;;;;;;;14.30;10.53;;;15.40;99.90;;;;;;4341609;33;20169;-62
2021/06/30 11:24:47;;;;;;;17.53;10.63;;;15.60;99.90;;;;;;4338627;33;20567;-63
2021/06/30 11:27:39;;;;;;;21.47;11.00;;;15.80;99.90;;;;;;4330083;33;20224;-63
2021/06/30 11:30:09;;;;;;;20.40;11.73;;;15.80;99.90;;;;;;4335432;33;20220;-62
2021/06/30 11:32:50;;;;;;;20.03;10.90;;;15.70;99.90;;;;;;4340906;32;20183;-62
2021/06/30 11:35:35;;;;;;;23.03;11.30;;;15.80;99.90;;;;;;4383508;32;20144;-62
2021/06/30 11:38:13;;;;;;;19.20;10.67;;;15.70;99.90;;;;;;4387826;32;20180;-62
2021/06/30 11:40:46;;;;;;;12.73;9.73;;;15.70;99.90;;;;;;4391586;32;20474;-62
2021/06/30 11:43:18;;;;;;;18.33;11.00;;;15.70;99.90;;;;;;4386434;32;20148;-62
2021/06/30 11:45:46;;;;;;;14.73;10.13;;;15.70;99.90;;;;;;4391499;32;20198;-62
2021/06/30 11:48:15;;;;;;;15.27;10.97;;;15.80;99.90;;;;;;4392033;32;20572;-61
2021/06/30 11:50:48;;;;;;;18.90;11.13;;;16.00;99.90;;;;;;4391198;32;20172;-59
2021/06/30 11:53:15;;;;;;;20.27;11.90;;;16.20;99.90;;;;;;4391681;32;20144;-62
2021/06/30 11:55:44;;;;;;;16.93;11.47;;;16.10;99.90;;;;;;4385244;32;20220;-62
2021/06/30 11:58:11;;;;;;;18.03;10.80;;;16.20;99.90;;;;;;4378270;32;20556;-60
2021/06/30 12:00:43;;;;;;;13.27;9.50;;;16.20;99.90;;;;;;4381798;32;20152;-59
2021/06/30 12:03:10;;;;;;;12.87;8.83;;;16.20;99.90;;;;;;4393668;32;20248;-60
2021/06/30 12:05:38;;;;;;;15.27;9.53;;;16.30;99.90;;;;;;4380370;32;20160;-60
2021/06/30 12:08:07;;;;;;;15.37;8.60;;;16.40;99.90;;;;;;4384521;32;20156;-63
2021/06/30 12:10:37;;;;;;;17.20;9.13;;;16.40;99.90;;;;;;4392166;32;20174;-61
2021/06/30 12:13:05;;;;;;;13.83;9.60;;;16.50;99.90;;;;;;4391521;32;20141;-61
2021/06/30 12:15:32;;;;;;;15.97;10.13;;;16.40;99.90;;;;;;4389810;32;20152;-62
2021/06/30 12:18:00;;;;;;;14.60;8.67;;;16.50;99.90;;;;;;4391132;32;20152;-61
2021/06/30 12:20:29;;;;;;;18.57;9.30;;;16.70;99.90;;;;;;4380649;32;20492;-61
2021/06/30 12:22:56;;;;;;;13.30;9.03;;;16.50;99.90;;;;;;4379464;32;20226;-60
2021/06/30 12:25:25;;;;;;;15.07;8.77;;;16.50;99.90;;;;;;4385317;32;20187;-61
2021/06/30 12:27:54;;;;;;;11.10;6.97;;;16.50;99.90;;;;;;4385881;32;20140;-63
2021/06/30 12:30:24;;;;;;;17.70;8.63;;;16.40;99.90;;;;;;4385182;32;20267;-62
2021/06/30 12:32:54;;;;;;;11.70;6.60;;;16.40;99.90;;;;;;4391673;32;20152;-63
2021/06/30 12:35:26;;;;;;;10.03;6.97;;;16.40;99.90;;;;;;4389315;32;20198;-61
2021/06/30 12:37:58;;;;;;;10.37;6.73;;;16.60;99.90;;;;;;4385616;32;20166;-61
2021/06/30 12:40:31;;;;;;;7.37;6.47;;;16.80;99.90;;;;;;4376266;32;20167;-62
2021/06/30 12:43:04;;;;;;;7.33;5.60;;;16.70;99.90;;;;;;4388251;32;20148;-61
2021/06/30 12:45:39;;;;;;;7.17;5.10;;;16.70;99.90;;;;;;4383215;32;20214;-61
2021/06/30 12:48:08;;;;;;;12.43;6.30;;;16.80;99.90;;;;;;4383375;32;20219;-62